Time;durP1;ratioP1;P1;durP2;ratioP2;P2;SDS_P1;SDS_P2;PMS_P1;PMS_P2;Temp;Humidity;BMP_temperature;BMP_pressure;BME280_temperature;BME280_humidity;BME280_pressure;Samples;Min_cycle;Max_cycle;Signal;HPM_P1;HPM_P2
2024/03/06 00:00:11;;;;;;;17.75;15.30;;;;;;;;;;5073501;28;20028;-64
2024/03/06 00:02:36;;;;;;;18.35;15.00;;;;;;;;;;5073443;28;20035;-64
2024/03/06 00:05:02;;;;;;;18.52;15.23;;;;;;;;;;5073675;28;20035;-64
2024/03/06 00:07:27;;;;;;;16.58;14.68;;;;;;;;;;5073152;28;20032;-64
2024/03/06 00:09:53;;;;;;;20.52;15.93;;;;;;;;;;5073655;28;20075;-64
2024/03/06 00:12:18;;;;;;;22.63;16.83;;;;;;;;;;5055697;28;20037;-64
2024/03/06 00:14:44;;;;;;;20.75;16.33;;;;;;;;;;5072958;28;20108;-64
2024/03/06 00:17:09;;;;;;;15.40;13.80;;;;;;;;;;5073572;28;20353;-64
2024/03/06 00:19:35;;;;;;;15.05;13.55;;;;;;;;;;5072996;28;20476;-64
2024/03/06 00:22:01;;;;;;;17.80;14.35;;;;;;;;;;5072936;28;20028;-64
2024/03/06 00:24:26;;;;;;;15.93;13.98;;;;;;;;;;5073186;28;20033;-64
2024/03/06 00:26:51;;;;;;;15.15;13.55;;;;;;;;;;5054948;28;20055;-64
2024/03/06 00:29:17;;;;;;;17.85;15.70;;;;;;;;;;5072673;28;20491;-64
2024/03/06 00:31:43;;;;;;;19.88;15.25;;;;;;;;;;5072351;28;20071;-66
2024/03/06 00:34:09;;;;;;;19.83;15.52;;;;;;;;;;5074819;28;20032;-66
2024/03/06 00:36:35;;;;;;;19.98;16.48;;;;;;;;;;5076949;28;20028;-66
2024/03/06 00:39:00;;;;;;;19.88;15.75;;;;;;;;;;5076606;28;20033;-66
2024/03/06 00:41:26;;;;;;;18.52;15.77;;;;;;;;;;5076342;28;20085;-66
2024/03/06 00:43:51;;;;;;;23.92;17.05;;;;;;;;;;5075029;28;20036;-66
2024/03/06 00:46:16;;;;;;;22.95;17.08;;;;;;;;;;5076233;28;20078;-64
2024/03/06 00:48:42;;;;;;;23.45;17.88;;;;;;;;;;5058674;28;20447;-65
2024/03/06 00:51:07;;;;;;;30.42;22.33;;;;;;;;;;5076713;28;20035;-65
2024/03/06 00:53:34;;;;;;;24.75;17.95;;;;;;;;;;5076048;28;20035;-65
2024/03/06 00:56:00;;;;;;;29.27;21.45;;;;;;;;;;5076041;28;20099;-65
2024/03/06 00:58:25;;;;;;;28.58;19.92;;;;;;;;;;5076328;28;20441;-66
2024/03/06 01:00:51;;;;;;;22.60;16.63;;;;;;;;;;5058072;28;20029;-66
2024/03/06 01:03:16;;;;;;;24.65;19.23;;;;;;;;;;5075880;28;20029;-66
2024/03/06 01:05:42;;;;;;;20.70;16.27;;;;;;;;;;5076470;28;20372;-66
2024/03/06 01:08:07;;;;;;;18.75;15.15;;;;;;;;;;5075854;28;20027;-66
2024/03/06 01:10:33;;;;;;;15.63;13.85;;;;;;;;;;5075833;28;20039;-67
2024/03/06 01:12:58;;;;;;;15.07;13.15;;;;;;;;;;5076286;28;20029;-67
2024/03/06 01:15:23;;;;;;;17.13;14.25;;;;;;;;;;5073002;28;20468;-67
2024/03/06 01:17:50;;;;;;;16.67;13.77;;;;;;;;;;5076269;28;20033;-67
2024/03/06 01:20:15;;;;;;;16.23;13.80;;;;;;;;;;5075934;28;20035;-67
2024/03/06 01:22:41;;;;;;;17.25;14.35;;;;;;;;;;5075571;28;20099;-66
2024/03/06 01:25:07;;;;;;;15.88;13.52;;;;;;;;;;5075628;28;20028;-67
2024/03/06 01:27:33;;;;;;;14.88;12.27;;;;;;;;;;5075808;28;20039;-66
2024/03/06 01:29:59;;;;;;;14.82;12.60;;;;;;;;;;5075578;28;20060;-66
2024/03/06 01:32:24;;;;;;;16.15;12.57;;;;;;;;;;5074503;28;20067;-67
2024/03/06 01:34:50;;;;;;;13.75;12.02;;;;;;;;;;5056376;28;20052;-67
2024/03/06 01:37:15;;;;;;;13.32;11.93;;;;;;;;;;5075030;28;20024;-68
2024/03/06 01:39:41;;;;;;;12.93;11.48;;;;;;;;;;5074683;28;20119;-66
2024/03/06 01:42:06;;;;;;;14.75;12.63;;;;;;;;;;5074528;28;20025;-66
2024/03/06 01:44:32;;;;;;;14.52;11.98;;;;;;;;;;5072756;28;20032;-65
2024/03/06 01:46:57;;;;;;;15.32;13.00;;;;;;;;;;5074757;28;20020;-66
2024/03/06 01:49:23;;;;;;;16.98;13.15;;;;;;;;;;5074839;28;20085;-65
2024/03/06 01:51:51;;;;;;;14.75;12.13;;;;;;;;;;5073507;28;20044;-65
2024/03/06 01:54:17;;;;;;;12.82;11.23;;;;;;;;;;5073936;28;20060;-65
2024/03/06 01:56:46;;;;;;;12.63;11.00;;;;;;;;;;5074098;28;20027;-65
2024/03/06 01:59:13;;;;;;;11.55;10.45;;;;;;;;;;5074030;28;20644;-65
2024/03/06 02:01:39;;;;;;;13.45;11.38;;;;;;;;;;5056152;28;20036;-65
2024/03/06 02:04:06;;;;;;;12.40;11.10;;;;;;;;;;5074700;28;20111;-65
2024/03/06 02:06:32;;;;;;;14.18;11.80;;;;;;;;;;5057207;28;20055;-65
2024/03/06 02:08:57;;;;;;;14.23;11.75;;;;;;;;;;5075250;28;20059;-65
2024/03/06 02:11:22;;;;;;;17.15;14.30;;;;;;;;;;5074611;28;20029;-65
2024/03/06 02:13:49;;;;;;;17.67;13.85;;;;;;;;;;5074785;28;20315;-65
2024/03/06 02:16:15;;;;;;;15.50;12.98;;;;;;;;;;5056890;28;20029;-65
2024/03/06 02:18:51;;;;;;;16.10;13.43;;;;;;;;;;5075236;28;20028;-65
2024/03/06 02:21:16;;;;;;;17.10;12.88;;;;;;;;;;5056401;28;20021;-65
2024/03/06 02:23:42;;;;;;;15.45;12.80;;;;;;;;;;5074419;28;20368;-65
2024/03/06 02:26:07;;;;;;;16.58;13.27;;;;;;;;;;5074357;28;20380;-65
2024/03/06 02:28:34;;;;;;;15.32;13.02;;;;;;;;;;5056827;28;20025;-65
2024/03/06 02:31:00;;;;;;;14.73;12.55;;;;;;;;;;5056177;28;20557;-65
2024/03/06 02:33:25;;;;;;;15.10;12.80;;;;;;;;;;5074188;28;20036;-65
2024/03/06 02:35:51;;;;;;;17.88;13.85;;;;;;;;;;5057057;28;20032;-65
2024/03/06 02:38:17;;;;;;;18.58;14.23;;;;;;;;;;5074272;28;20435;-66
2024/03/06 02:40:47;;;;;;;16.00;13.50;;;;;;;;;;5074476;28;20016;-66
2024/03/06 02:43:13;;;;;;;19.02;14.25;;;;;;;;;;5074317;28;20033;-66
2024/03/06 02:45:39;;;;;;;14.20;12.20;;;;;;;;;;5074503;28;20346;-65
2024/03/06 02:48:05;;;;;;;15.80;12.10;;;;;;;;;;5056283;28;20446;-66
2024/03/06 02:50:31;;;;;;;15.77;12.95;;;;;;;;;;5074286;28;20017;-65
2024/03/06 02:52:56;;;;;;;25.48;18.23;;;;;;;;;;5073918;28;20464;-66
2024/03/06 02:55:26;;;;;;;17.33;13.38;;;;;;;;;;5075811;28;20039;-66
2024/03/06 02:57:51;;;;;;;15.30;12.25;;;;;;;;;;5057692;28;20076;-65
2024/03/06 03:00:17;;;;;;;15.00;12.85;;;;;;;;;;5057481;28;20129;-65
2024/03/06 03:02:43;;;;;;;13.95;12.18;;;;;;;;;;5074173;28;20025;-65
2024/03/06 03:05:08;;;;;;;14.63;13.05;;;;;;;;;;5073900;28;20063;-65
2024/03/06 03:07:34;;;;;;;16.15;12.98;;;;;;;;;;5074161;28;20103;-65
2024/03/06 03:09:59;;;;;;;14.75;12.35;;;;;;;;;;5074221;28;20372;-65
2024/03/06 03:12:25;;;;;;;14.38;12.38;;;;;;;;;;5074127;28;20029;-65
2024/03/06 03:14:50;;;;;;;13.75;12.15;;;;;;;;;;5056037;28;20518;-65
2024/03/06 03:17:19;;;;;;;13.82;12.00;;;;;;;;;;5056451;28;20033;-65
2024/03/06 03:19:44;;;;;;;14.55;11.05;;;;;;;;;;5073833;28;20027;-65
2024/03/06 03:22:10;;;;;;;14.25;12.00;;;;;;;;;;5073585;28;20095;-65
2024/03/06 03:24:36;;;;;;;13.65;11.68;;;;;;;;;;5056071;28;20448;-65
2024/03/06 03:27:02;;;;;;;13.93;11.77;;;;;;;;;;5056155;28;20028;-65
2024/03/06 03:29:28;;;;;;;13.55;11.27;;;;;;;;;;5073801;28;20043;-65
2024/03/06 03:31:53;;;;;;;12.60;11.10;;;;;;;;;;5073253;28;20048;-65
2024/03/06 03:34:20;;;;;;;19.92;15.15;;;;;;;;;;5073279;28;20072;-65
2024/03/06 03:36:46;;;;;;;16.70;13.18;;;;;;;;;;5073245;28;20036;-65
2024/03/06 03:39:17;;;;;;;14.25;12.02;;;;;;;;;;5073819;28;20028;-66
2024/03/06 03:41:43;;;;;;;13.90;11.32;;;;;;;;;;5073697;28;20052;-66
2024/03/06 03:44:09;;;;;;;14.15;11.57;;;;;;;;;;5055357;28;20044;-67
2024/03/06 03:46:34;;;;;;;14.15;12.27;;;;;;;;;;5073528;28;20021;-67
2024/03/06 03:49:00;;;;;;;14.23;12.35;;;;;;;;;;5072590;28;20025;-66
2024/03/06 03:51:25;;;;;;;14.73;11.82;;;;;;;;;;5073504;28;20028;-65
2024/03/06 03:53:52;;;;;;;14.85;12.20;;;;;;;;;;5071629;28;20025;-65
2024/03/06 03:56:18;;;;;;;16.63;12.52;;;;;;;;;;5073622;28;20527;-65
2024/03/06 03:58:44;;;;;;;30.05;18.85;;;;;;;;;;5073426;28;20052;-65
2024/03/06 04:01:10;;;;;;;53.30;28.13;;;;;;;;;;5073394;28;20115;-66
2024/03/06 04:03:36;;;;;;;68.47;35.13;;;;;;;;;;5073067;28;20388;-66
2024/03/06 04:06:02;;;;;;;59.00;32.33;;;;;;;;;;5073491;28;20095;-65
2024/03/06 04:08:27;;;;;;;85.53;38.38;;;;;;;;;;5074110;28;20483;-65
2024/03/06 04:10:53;;;;;;;69.68;30.15;;;;;;;;;;5059541;28;20056;-65
2024/03/06 04:13:20;;;;;;;54.83;25.10;;;;;;;;;;5077045;28;20468;-67
2024/03/06 04:15:45;;;;;;;45.35;22.70;;;;;;;;;;5059725;28;20033;-67
2024/03/06 04:18:11;;;;;;;39.55;20.95;;;;;;;;;;5059325;28;20089;-63
2024/03/06 04:20:36;;;;;;;79.43;29.20;;;;;;;;;;5076946;28;20081;-63
2024/03/06 04:23:02;;;;;;;59.33;26.50;;;;;;;;;;5077149;28;20039;-62
2024/03/06 04:25:27;;;;;;;64.55;27.58;;;;;;;;;;5077185;28;20024;-65
2024/03/06 04:28:02;;;;;;;60.53;26.92;;;;;;;;;;5077219;28;20029;-66
2024/03/06 04:30:27;;;;;;;62.08;27.40;;;;;;;;;;5076530;28;20052;-65
2024/03/06 04:32:53;;;;;;;64.03;27.80;;;;;;;;;;5077213;28;20495;-66
2024/03/06 04:35:18;;;;;;;64.15;26.77;;;;;;;;;;5093324;22;20031;-66
2024/03/06 04:37:48;;;;;;;62.67;26.42;;;;;;;;;;5101724;22;20059;-66
2024/03/06 04:40:17;;;;;;;80.53;32.13;;;;;;;;;;5076368;28;20028;-67
2024/03/06 04:42:45;;;;;;;80.13;29.93;;;;;;;;;;5075013;28;20086;-67
2024/03/06 04:45:14;;;;;;;66.53;27.67;;;;;;;;;;5083102;28;20027;-68
2024/03/06 04:47:40;;;;;;;66.25;26.45;;;;;;;;;;5096848;28;20035;-68
2024/03/06 04:50:08;;;;;;;63.42;26.52;;;;;;;;;;5096086;28;20047;-69
2024/03/06 04:52:34;;;;;;;62.35;26.55;;;;;;;;;;5095206;28;20053;-69
2024/03/06 04:55:00;;;;;;;56.53;25.80;;;;;;;;;;5095425;28;20044;-69
2024/03/06 04:57:26;;;;;;;50.30;23.65;;;;;;;;;;5093453;28;20074;-68
2024/03/06 04:59:52;;;;;;;48.70;22.75;;;;;;;;;;5093875;28;20099;-68
2024/03/06 05:02:17;;;;;;;34.33;18.65;;;;;;;;;;5093848;28;20115;-68
2024/03/06 05:04:43;;;;;;;35.75;19.27;;;;;;;;;;5094945;28;20047;-68
2024/03/06 05:07:08;;;;;;;29.42;16.98;;;;;;;;;;5095723;28;20501;-68
2024/03/06 05:09:34;;;;;;;27.45;17.23;;;;;;;;;;5096651;28;20077;-69
2024/03/06 05:12:00;;;;;;;23.75;14.88;;;;;;;;;;5095993;28;20040;-69
2024/03/06 05:14:26;;;;;;;17.05;13.02;;;;;;;;;;5094001;28;20035;-70
2024/03/06 05:16:52;;;;;;;15.68;12.40;;;;;;;;;;5076091;28;20426;-66
2024/03/06 05:19:17;;;;;;;17.95;13.10;;;;;;;;;;5075077;28;20027;-66
2024/03/06 05:21:43;;;;;;;17.88;13.10;;;;;;;;;;5076026;28;20029;-66
2024/03/06 05:24:09;;;;;;;18.35;13.10;;;;;;;;;;5076122;28;20351;-65
2024/03/06 05:26:34;;;;;;;19.60;13.48;;;;;;;;;;5075838;28;20029;-66
2024/03/06 05:29:00;;;;;;;17.02;12.85;;;;;;;;;;5076033;28;20123;-66
2024/03/06 05:31:25;;;;;;;19.33;13.30;;;;;;;;;;5075716;28;20033;-65
2024/03/06 05:33:51;;;;;;;17.92;13.90;;;;;;;;;;5075631;28;20056;-65
2024/03/06 05:36:17;;;;;;;19.35;14.00;;;;;;;;;;5074287;28;20033;-65
2024/03/06 05:38:43;;;;;;;19.58;14.32;;;;;;;;;;5075627;28;20040;-65
2024/03/06 05:41:11;;;;;;;18.63;13.65;;;;;;;;;;5075605;28;20021;-65
2024/03/06 05:43:36;;;;;;;20.08;13.98;;;;;;;;;;5075706;28;20033;-65
2024/03/06 05:46:02;;;;;;;22.52;15.10;;;;;;;;;;5073964;28;20078;-65
2024/03/06 05:48:27;;;;;;;23.20;15.13;;;;;;;;;;5075298;28;20085;-65
2024/03/06 05:50:53;;;;;;;23.52;16.08;;;;;;;;;;5075166;28;20107;-66
2024/03/06 05:53:19;;;;;;;20.80;14.90;;;;;;;;;;5074936;28;20028;-66
2024/03/06 05:55:45;;;;;;;22.38;14.90;;;;;;;;;;5075567;28;20036;-66
2024/03/06 05:58:10;;;;;;;22.27;15.40;;;;;;;;;;5075692;28;20039;-66
2024/03/06 06:00:35;;;;;;;21.75;14.80;;;;;;;;;;5075069;28;20050;-66
2024/03/06 06:03:01;;;;;;;24.15;16.38;;;;;;;;;;5074916;28;20029;-66
2024/03/06 06:05:27;;;;;;;26.33;16.75;;;;;;;;;;5075290;28;20365;-66
2024/03/06 06:07:52;;;;;;;24.55;17.33;;;;;;;;;;5073893;28;20037;-66
2024/03/06 06:10:18;;;;;;;25.17;16.27;;;;;;;;;;5074889;28;20024;-66
2024/03/06 06:12:44;;;;;;;23.02;16.25;;;;;;;;;;5075295;28;20039;-66
2024/03/06 06:15:10;;;;;;;22.52;16.42;;;;;;;;;;5074794;28;20028;-66
2024/03/06 06:17:37;;;;;;;26.10;17.80;;;;;;;;;;5074520;28;20028;-68
2024/03/06 06:20:04;;;;;;;26.85;18.45;;;;;;;;;;5072975;28;20077;-69
2024/03/06 06:22:29;;;;;;;28.23;18.52;;;;;;;;;;5073898;28;20472;-69
2024/03/06 06:24:55;;;;;;;25.98;18.40;;;;;;;;;;5073120;28;20028;-69
2024/03/06 06:27:21;;;;;;;24.95;17.88;;;;;;;;;;5074598;28;20025;-69
2024/03/06 06:29:46;;;;;;;26.85;18.23;;;;;;;;;;5073425;28;20476;-69
2024/03/06 06:32:12;;;;;;;25.80;17.88;;;;;;;;;;5073812;28;20024;-69
2024/03/06 06:34:37;;;;;;;24.83;17.33;;;;;;;;;;5072772;28;20403;-69
2024/03/06 06:37:02;;;;;;;26.38;18.23;;;;;;;;;;5072125;28;20032;-69
2024/03/06 06:39:28;;;;;;;24.38;17.33;;;;;;;;;;5072300;28;20155;-69
2024/03/06 06:41:53;;;;;;;24.95;17.35;;;;;;;;;;5071070;28;20024;-69
2024/03/06 06:44:19;;;;;;;24.27;17.65;;;;;;;;;;5072130;28;20388;-69
2024/03/06 06:46:44;;;;;;;23.92;16.75;;;;;;;;;;5054351;28;20384;-62
2024/03/06 06:49:09;;;;;;;20.52;16.27;;;;;;;;;;5073309;28;20086;-62
2024/03/06 06:51:35;;;;;;;21.00;15.40;;;;;;;;;;5074500;28;20024;-62
2024/03/06 06:54:00;;;;;;;20.52;16.05;;;;;;;;;;5085155;22;20109;-62
2024/03/06 06:56:26;;;;;;;19.15;15.48;;;;;;;;;;5089618;22;20063;-62
2024/03/06 06:58:52;;;;;;;21.13;15.48;;;;;;;;;;5072586;28;20061;-62
2024/03/06 07:01:18;;;;;;;20.92;15.90;;;;;;;;;;5072713;28;20476;-62
2024/03/06 07:03:43;;;;;;;24.38;17.23;;;;;;;;;;5072514;28;20083;-62
2024/03/06 07:06:08;;;;;;;21.88;16.73;;;;;;;;;;5074070;28;20077;-62
2024/03/06 07:08:34;;;;;;;25.52;17.00;;;;;;;;;;5072752;28;20025;-62
2024/03/06 07:11:01;;;;;;;24.67;17.23;;;;;;;;;;5072427;28;20033;-62
2024/03/06 07:13:26;;;;;;;25.60;18.00;;;;;;;;;;5074225;28;20460;-62
2024/03/06 07:15:52;;;;;;;26.27;18.67;;;;;;;;;;5074967;28;20078;-62
2024/03/06 07:18:18;;;;;;;27.10;18.33;;;;;;;;;;5058216;28;20062;-62
2024/03/06 07:20:43;;;;;;;25.13;17.70;;;;;;;;;;5075575;28;20036;-62
2024/03/06 07:23:09;;;;;;;26.58;18.42;;;;;;;;;;5072805;28;20036;-62
2024/03/06 07:25:34;;;;;;;26.10;18.98;;;;;;;;;;5072233;28;20043;-61
2024/03/06 07:27:59;;;;;;;28.15;18.63;;;;;;;;;;5073811;28;20483;-62
2024/03/06 07:30:25;;;;;;;26.25;17.80;;;;;;;;;;5073781;28;20464;-62
2024/03/06 07:32:50;;;;;;;26.20;18.70;;;;;;;;;;5073511;28;20036;-62
2024/03/06 07:35:17;;;;;;;28.27;18.73;;;;;;;;;;5073687;28;20031;-62
2024/03/06 07:37:44;;;;;;;27.40;18.95;;;;;;;;;;5072522;28;20043;-61
2024/03/06 07:40:10;;;;;;;27.08;19.00;;;;;;;;;;5073633;28;20537;-62
2024/03/06 07:42:37;;;;;;;27.58;18.85;;;;;;;;;;5074620;28;20024;-62
2024/03/06 07:45:03;;;;;;;28.63;19.20;;;;;;;;;;5076226;28;20028;-62
2024/03/06 07:47:29;;;;;;;29.23;19.63;;;;;;;;;;5077447;28;20108;-62
2024/03/06 07:49:54;;;;;;;27.02;19.35;;;;;;;;;;5077706;28;20578;-62
2024/03/06 07:52:20;;;;;;;28.75;20.40;;;;;;;;;;5077648;28;20040;-62
2024/03/06 07:54:45;;;;;;;27.98;18.55;;;;;;;;;;5076345;28;20029;-62
2024/03/06 07:57:11;;;;;;;27.60;19.27;;;;;;;;;;5088716;22;20756;-62
2024/03/06 07:59:36;;;;;;;27.52;18.25;;;;;;;;;;5076684;28;20032;-61
2024/03/06 08:02:01;;;;;;;28.02;18.88;;;;;;;;;;5077121;28;20044;-62
2024/03/06 08:04:28;;;;;;;25.73;18.80;;;;;;;;;;5077092;28;20041;-62
2024/03/06 08:06:53;;;;;;;27.85;18.52;;;;;;;;;;5059105;28;20032;-62
2024/03/06 08:09:19;;;;;;;24.48;17.00;;;;;;;;;;5077249;28;20060;-62
2024/03/06 08:11:45;;;;;;;25.08;17.63;;;;;;;;;;5059155;28;20062;-62
2024/03/06 08:14:10;;;;;;;23.55;17.10;;;;;;;;;;5058872;28;20028;-62
2024/03/06 08:16:37;;;;;;;23.77;16.27;;;;;;;;;;5077101;28;20427;-62
2024/03/06 08:19:03;;;;;;;24.05;17.30;;;;;;;;;;5058846;28;20411;-62
2024/03/06 08:21:28;;;;;;;23.20;16.42;;;;;;;;;;5076756;28;20017;-62
2024/03/06 08:23:53;;;;;;;24.83;16.48;;;;;;;;;;5076729;28;20029;-62
2024/03/06 08:26:19;;;;;;;24.48;16.33;;;;;;;;;;5076946;28;20064;-62
2024/03/06 08:28:45;;;;;;;22.88;15.70;;;;;;;;;;5076655;28;20439;-62
2024/03/06 08:31:10;;;;;;;22.75;15.85;;;;;;;;;;5076579;28;20086;-62
2024/03/06 08:33:36;;;;;;;20.65;15.15;;;;;;;;;;5058866;28;20039;-62
2024/03/06 08:36:02;;;;;;;22.27;15.57;;;;;;;;;;5076789;28;20400;-61
2024/03/06 08:38:27;;;;;;;42.33;24.00;;;;;;;;;;5076706;28;20446;-63
2024/03/06 08:40:53;;;;;;;22.15;16.10;;;;;;;;;;5076421;28;20056;-62
2024/03/06 08:43:19;;;;;;;23.67;15.95;;;;;;;;;;5075187;28;20029;-61
2024/03/06 08:45:44;;;;;;;22.75;15.80;;;;;;;;;;5076377;28;20104;-62
2024/03/06 08:48:11;;;;;;;23.95;15.95;;;;;;;;;;5076815;28;20056;-62
2024/03/06 08:50:38;;;;;;;21.85;15.55;;;;;;;;;;5076203;28;20043;-62
2024/03/06 08:53:04;;;;;;;21.30;14.90;;;;;;;;;;5076455;28;20029;-61
2024/03/06 08:55:29;;;;;;;22.27;16.00;;;;;;;;;;5075560;28;20039;-62
2024/03/06 08:57:55;;;;;;;21.55;15.63;;;;;;;;;;5075945;28;20036;-62
2024/03/06 09:00:21;;;;;;;20.70;15.55;;;;;;;;;;5076616;28;20078;-62
2024/03/06 09:02:47;;;;;;;23.92;16.25;;;;;;;;;;5076295;28;20021;-62
2024/03/06 09:05:12;;;;;;;24.48;16.70;;;;;;;;;;5075886;28;20028;-62
2024/03/06 09:07:41;;;;;;;23.65;16.40;;;;;;;;;;5076228;28;20027;-62
2024/03/06 09:10:10;;;;;;;25.25;16.83;;;;;;;;;;5076173;28;20038;-62
2024/03/06 09:12:44;;;;;;;24.40;17.10;;;;;;;;;;5079877;22;20044;-66
2024/03/06 09:15:11;;;;;;;25.08;17.50;;;;;;;;;;5080813;22;20686;-68
2024/03/06 09:17:37;;;;;;;23.45;16.15;;;;;;;;;;5075749;28;20103;-68
2024/03/06 09:20:11;;;;;;;24.80;16.58;;;;;;;;;;5076224;28;20112;-68
2024/03/06 09:22:37;;;;;;;24.15;16.55;;;;;;;;;;5076913;28;20050;-68
2024/03/06 09:25:03;;;;;;;22.67;16.20;;;;;;;;;;5058840;28;20040;-68
2024/03/06 09:27:28;;;;;;;27.38;17.15;;;;;;;;;;5057775;28;20032;-68
2024/03/06 09:29:54;;;;;;;26.83;17.35;;;;;;;;;;5057527;28;20098;-68
2024/03/06 09:32:19;;;;;;;24.38;17.17;;;;;;;;;;5075725;28;20404;-68
2024/03/06 09:34:45;;;;;;;26.00;17.73;;;;;;;;;;5075379;28;20033;-68
2024/03/06 09:37:10;;;;;;;26.40;17.40;;;;;;;;;;5075631;28;20028;-68
2024/03/06 09:39:35;;;;;;;25.98;17.00;;;;;;;;;;5075619;28;20132;-68
2024/03/06 09:42:01;;;;;;;25.42;18.75;;;;;;;;;;5075250;28;20033;-68
2024/03/06 09:44:27;;;;;;;24.67;17.80;;;;;;;;;;5057280;28;20036;-68
2024/03/06 09:46:53;;;;;;;26.63;18.08;;;;;;;;;;5075466;28;20054;-68
2024/03/06 09:49:21;;;;;;;26.45;18.38;;;;;;;;;;5057550;28;20040;-68
2024/03/06 09:51:49;;;;;;;26.02;18.33;;;;;;;;;;5075652;28;20029;-68
2024/03/06 09:54:16;;;;;;;29.10;19.27;;;;;;;;;;5040393;28;20028;-68
2024/03/06 09:56:43;;;;;;;28.70;18.88;;;;;;;;;;5074979;28;20104;-68
2024/03/06 09:59:08;;;;;;;29.35;19.35;;;;;;;;;;5075217;28;20017;-68
2024/03/06 10:01:36;;;;;;;28.98;19.05;;;;;;;;;;5056936;28;20388;-68
2024/03/06 10:04:16;;;;;;;28.92;19.52;;;;;;;;;;5074816;28;20036;-68
2024/03/06 10:06:44;;;;;;;31.17;20.77;;;;;;;;;;5073965;28;20448;-68
2024/03/06 10:09:10;;;;;;;28.65;19.33;;;;;;;;;;5075018;28;20350;-68
2024/03/06 10:11:42;;;;;;;28.00;18.33;;;;;;;;;;5074933;28;20033;-68
2024/03/06 10:14:07;;;;;;;28.45;19.15;;;;;;;;;;5057045;28;20032;-68
2024/03/06 10:16:35;;;;;;;31.90;20.48;;;;;;;;;;5056649;28;20089;-68
2024/03/06 10:19:18;;;;;;;29.00;18.70;;;;;;;;;;5056976;28;20084;-68
2024/03/06 10:21:53;;;;;;;27.05;17.23;;;;;;;;;;5074735;28;20031;-68
2024/03/06 10:24:25;;;;;;;24.00;16.75;;;;;;;;;;5056569;28;20119;-68
2024/03/06 10:26:54;;;;;;;26.50;17.45;;;;;;;;;;5056876;28;20107;-68
2024/03/06 10:29:19;;;;;;;27.50;18.50;;;;;;;;;;5074313;28;20187;-68
2024/03/06 10:31:54;;;;;;;24.73;17.77;;;;;;;;;;5074638;28;20024;-68
2024/03/06 10:34:20;;;;;;;25.33;17.02;;;;;;;;;;5074159;28;20119;-68
2024/03/06 10:36:45;;;;;;;25.63;17.58;;;;;;;;;;5039695;28;20040;-68
2024/03/06 10:39:11;;;;;;;24.75;17.38;;;;;;;;;;5074712;28;20029;-68
2024/03/06 10:41:38;;;;;;;23.83;17.17;;;;;;;;;;5074422;28;20025;-68
2024/03/06 10:44:04;;;;;;;23.20;17.35;;;;;;;;;;5040068;28;20368;-68
2024/03/06 10:46:30;;;;;;;23.83;16.85;;;;;;;;;;5074320;28;20032;-68
2024/03/06 10:48:58;;;;;;;25.73;17.10;;;;;;;;;;5074291;28;20044;-68
2024/03/06 10:51:25;;;;;;;22.27;17.00;;;;;;;;;;5056450;28;20028;-68
2024/03/06 10:53:50;;;;;;;24.35;17.27;;;;;;;;;;5074152;28;20123;-68
2024/03/06 10:56:17;;;;;;;22.55;16.45;;;;;;;;;;5074167;28;20112;-68
2024/03/06 10:58:43;;;;;;;24.35;17.83;;;;;;;;;;5056593;28;20036;-69
2024/03/06 11:01:10;;;;;;;23.77;16.98;;;;;;;;;;5074082;28;20460;-68
2024/03/06 11:03:43;;;;;;;23.20;17.27;;;;;;;;;;5073782;28;20029;-68
2024/03/06 11:06:08;;;;;;;23.13;16.85;;;;;;;;;;5074019;28;20021;-69
2024/03/06 11:08:34;;;;;;;25.02;17.50;;;;;;;;;;5073727;28;20361;-69
2024/03/06 11:11:18;;;;;;;26.33;17.42;;;;;;;;;;5055798;28;20060;-69
2024/03/06 11:13:43;;;;;;;26.45;17.50;;;;;;;;;;5074141;28;20029;-68
2024/03/06 11:16:09;;;;;;;22.48;16.95;;;;;;;;;;5073536;28;20043;-69
2024/03/06 11:18:34;;;;;;;24.75;17.15;;;;;;;;;;5073537;28;20107;-69
2024/03/06 11:21:02;;;;;;;24.33;17.50;;;;;;;;;;5073611;28;20365;-69
2024/03/06 11:23:28;;;;;;;24.58;16.92;;;;;;;;;;5086783;22;20147;-69
2024/03/06 11:25:53;;;;;;;23.17;16.27;;;;;;;;;;5055576;28;20060;-69
2024/03/06 11:28:20;;;;;;;26.17;17.02;;;;;;;;;;5055620;28;20040;-69
2024/03/06 11:30:46;;;;;;;21.80;16.63;;;;;;;;;;5073479;28;20509;-69
2024/03/06 11:33:13;;;;;;;22.75;17.02;;;;;;;;;;5055530;28;20040;-69
2024/03/06 11:35:43;;;;;;;21.10;16.00;;;;;;;;;;5096806;22;20472;-63
2024/03/06 11:38:09;;;;;;;23.80;16.48;;;;;;;;;;5093614;28;20028;-62
2024/03/06 11:40:42;;;;;;;20.52;15.95;;;;;;;;;;5075459;28;20020;-69
2024/03/06 11:46:09;;;;;;;19.00;15.35;;;;;;;;;;5032229;28;20045;-69
2024/03/06 11:48:34;;;;;;;22.83;16.38;;;;;;;;;;5033359;28;20022;-69
2024/03/06 11:51:02;;;;;;;23.17;15.57;;;;;;;;;;5033931;28;20025;-69
2024/03/06 11:53:29;;;;;;;23.63;15.80;;;;;;;;;;5015632;28;20032;-69
2024/03/06 11:55:56;;;;;;;21.10;15.75;;;;;;;;;;5033511;28;20029;-69
2024/03/06 11:58:22;;;;;;;22.17;15.27;;;;;;;;;;5033858;28;20034;-69
2024/03/06 12:00:48;;;;;;;21.58;15.52;;;;;;;;;;5033555;28;20100;-69
2024/03/06 12:03:13;;;;;;;20.95;16.05;;;;;;;;;;5032368;28;20100;-69
2024/03/06 12:05:39;;;;;;;19.75;15.07;;;;;;;;;;5015538;28;20033;-69
2024/03/06 12:08:07;;;;;;;22.00;15.48;;;;;;;;;;5015525;28;20060;-69
2024/03/06 12:10:36;;;;;;;22.30;15.95;;;;;;;;;;5015898;28;20144;-69
2024/03/06 12:13:03;;;;;;;22.95;16.40;;;;;;;;;;5033219;28;20091;-69
2024/03/06 12:15:28;;;;;;;22.38;14.90;;;;;;;;;;5033068;28;20033;-69
2024/03/06 12:17:54;;;;;;;21.75;16.00;;;;;;;;;;5033384;28;20109;-69
2024/03/06 12:20:20;;;;;;;23.73;15.88;;;;;;;;;;5033141;28;20442;-69
2024/03/06 12:22:46;;;;;;;21.42;15.75;;;;;;;;;;5033059;28;20029;-69
2024/03/06 12:25:19;;;;;;;23.00;15.70;;;;;;;;;;5033636;28;20120;-69
2024/03/06 12:27:44;;;;;;;20.88;14.88;;;;;;;;;;5015318;28;20029;-69
2024/03/06 12:30:13;;;;;;;20.73;15.52;;;;;;;;;;5034713;28;20050;-68
2024/03/06 12:32:38;;;;;;;17.45;14.73;;;;;;;;;;5036720;28;20036;-69
2024/03/06 12:35:04;;;;;;;15.13;12.23;;;;;;;;;;5018831;28;20424;-69
2024/03/06 12:37:31;;;;;;;15.15;12.07;;;;;;;;;;5036603;28;20025;-68
2024/03/06 12:39:56;;;;;;;17.52;13.50;;;;;;;;;;5036793;28;20022;-69
2024/03/06 12:42:24;;;;;;;22.50;14.50;;;;;;;;;;5035285;28;20400;-69
2024/03/06 12:44:49;;;;;;;17.88;12.88;;;;;;;;;;5035005;28;20069;-68
2024/03/06 12:47:15;;;;;;;14.13;11.35;;;;;;;;;;5036406;28;20473;-69
2024/03/06 12:49:40;;;;;;;15.10;12.20;;;;;;;;;;5035096;28;20397;-68
2024/03/06 12:52:05;;;;;;;17.65;12.80;;;;;;;;;;5018579;28;20512;-69
2024/03/06 12:54:31;;;;;;;17.23;12.18;;;;;;;;;;5036536;28;20030;-68
2024/03/06 12:56:56;;;;;;;18.98;15.52;;;;;;;;;;5036506;28;20017;-68
2024/03/06 12:59:22;;;;;;;21.08;16.08;;;;;;;;;;5035299;28;20595;-68
2024/03/06 13:01:48;;;;;;;22.17;17.75;;;;;;;;;;5036101;28;20057;-69
2024/03/06 13:04:13;;;;;;;24.90;18.88;;;;;;;;;;5036323;28;20037;-68
2024/03/06 13:06:40;;;;;;;49.65;32.25;;;;;;;;;;5036331;28;20052;-69
2024/03/06 13:09:09;;;;;;;67.00;37.97;;;;;;;;;;5035993;28;20033;-68
2024/03/06 13:11:35;;;;;;;17.58;12.57;;;;;;;;;;5036214;28;20052;-68
2024/03/06 13:14:01;;;;;;;29.45;19.48;;;;;;;;;;5036117;28;20428;-68
2024/03/06 13:16:27;;;;;;;20.15;13.55;;;;;;;;;;5018945;28;20022;-68
2024/03/06 13:18:56;;;;;;;43.83;25.27;;;;;;;;;;5036091;28;20087;-68
2024/03/06 13:21:22;;;;;;;46.28;26.77;;;;;;;;;;5035767;28;20021;-69
2024/03/06 13:23:47;;;;;;;41.75;23.40;;;;;;;;;;5018114;28;20030;-69
2024/03/06 13:26:13;;;;;;;42.10;22.73;;;;;;;;;;5035663;28;20072;-69
2024/03/06 13:28:39;;;;;;;30.58;19.13;;;;;;;;;;5018702;28;20074;-68
2024/03/06 13:31:07;;;;;;;23.05;15.90;;;;;;;;;;5035892;28;20060;-68
2024/03/06 13:33:33;;;;;;;22.45;14.75;;;;;;;;;;5017371;28;20179;-68
2024/03/06 13:35:59;;;;;;;22.40;14.95;;;;;;;;;;5035993;28;20014;-69
2024/03/06 13:38:24;;;;;;;25.83;15.90;;;;;;;;;;5034204;28;20022;-68
2024/03/06 13:40:50;;;;;;;23.17;15.35;;;;;;;;;;5059835;22;20058;-68
2024/03/06 13:43:15;;;;;;;22.30;15.65;;;;;;;;;;5083371;22;20052;-62
2024/03/06 13:45:48;;;;;;;31.73;21.75;;;;;;;;;;5075245;28;20037;-61
2024/03/06 13:48:15;;;;;;;28.58;18.98;;;;;;;;;;5075189;28;20056;-62
2024/03/06 13:53:30;;;;;;;32.78;25.73;;;;;;;;;;5086220;22;20496;-68
2024/03/06 13:55:55;;;;;;;25.88;17.88;;;;;;;;;;5074999;28;20466;-68
2024/03/06 13:58:21;;;;;;;51.03;33.35;;;;;;;;;;5074114;28;20063;-68
2024/03/06 14:00:47;;;;;;;97.55;42.05;;;;;;;;;;5073620;28;20048;-68
2024/03/06 14:03:13;;;;;;;81.35;36.85;;;;;;;;;;5056991;28;20134;-68
2024/03/06 14:05:39;;;;;;;65.78;31.63;;;;;;;;;;5074875;28;20032;-68
2024/03/06 14:08:05;;;;;;;55.78;26.88;;;;;;;;;;5074875;28;20036;-68
2024/03/06 14:10:33;;;;;;;39.13;20.25;;;;;;;;;;5073843;28;20029;-68
2024/03/06 14:13:01;;;;;;;67.20;33.58;;;;;;;;;;5074847;28;20085;-68
2024/03/06 14:15:27;;;;;;;57.58;27.70;;;;;;;;;;5074817;28;20029;-68